AirNav   ATP
 
 323 users online  

57FL Lake Keystone Seaplane Base
Odessa, Florida, USA


FAA INFORMATION EFFECTIVE 01 FEBRUARY 2018

Location

FAA Identifier: 57FL
Lat/Long: 28-08-09.4000N / 082-35-38.3100W
28-08.156667N / 082-35.638500W
28.1359444 / -82.5939750
(estimated)
Elevation: 42 ft. / 13 m (estimated)
From city: 3 miles SSW of ODESSA, FL
Time zone: UTC -5 (UTC -4 during Daylight Saving Time)
Zip code: 33556

Seaplane Base Operations

Seaplane Base use: Private use. Permission required prior to landing
Activation date: 09/2014
Control tower: no
ARTCC: MIAMI CENTER
FSS: SAINT PETERSBURG FLIGHT SERVICE STATION
Attendance: UNATNDD
Wind indicator: yes
Segmented circle: no

Seaplane Base Communications

WX ASOS at TPA (10 nm S): PHONE 813-873-7228
WX AWOS-3P at CLW (13 nm SW): 119.225 (727-449-2184)
WX ASOS at PIE (14 nm S): PHONE 727-531-3456
WX AWOS-3 at VDF (15 nm SE): 121.125 (813-630-0924)
WX AWOS-3 at TPF (15 nm SE): 118.925 (813-251-6824)

Nearby radio navigation aids

VOR radial/distance  VOR name  Freq  Var
PIEr024/14.5ST PETERSBURG VORTAC116.4005W
LALr285/32.0LAKELAND VORTAC116.0001E

 
NDB name  Hdg/Dist  Freq  Var  ID
COSME315/4.736805WTP - .--.
CAPOK040/10.336005WPI .--. ..

Seaplane Base Services

Runway Information

Runway 14/32

Dimensions: 2500 x 200 ft. / 762 x 61 m
Surface: water
RUNWAY 14  RUNWAY 32
Traffic pattern: leftleft

Seaplane Base Ownership and Management from official FAA records

Ownership: Privately-owned
Owner: KEYSTONE SEAPLANE, LLC
8615 VIVIAN BASS WAY
ODESSA, FL 33556
Phone 813-416-5300
Manager: KEN LEONARD SR
10523 LAKE WILLIAMS
ODESSA, FL 33556
Phone 813-416-7744

Seaplane Base Operational Statistics

Aircraft based on the field: 1
Single engine airplanes: 1
    

Instrument Procedures

There are no published instrument procedures at 57FL.

Some nearby airports with instrument procedures:

KTPA - Tampa International Airport (10 nm S)
KCLW - Clearwater Air Park (13 nm SW)
KPIE - St Pete-Clearwater International Airport (14 nm S)
KVDF - Tampa Executive Airport (15 nm SE)
KTPF - Peter O Knight Airport (15 nm SE)
KMCF - MacDill Air Force Base (18 nm S)
 
Loc | Ops | Rwys | IFR | FBO | Links
Com | Nav | Svcs | Stats | Notes


 
Aerial photo
No photo
 
Airport distance calculator
Flying to Lake Keystone Seaplane Base? Find the distance to fly.

From to 57FL

Sunrise and sunset
Times for 25-Feb-2018
 Local
(UTC-5)
 Zulu
(UTC)
Morning civil twilight06:3611:36
Sunrise07:0012:00
Sunset18:2723:27
Evening civil twilight18:5123:51

Current date and time
Zulu (UTC)  25-Feb-2018 10:38:31
Local (UTC-5)  25-Feb-2018 05:38:31
 
METAR
KTPA 
11nm S 
250953Z 11003KT 10SM FEW070 22/20 A3014 RMK AO2 SLP206 T02170200
KCLW 
13nm SW 
251015Z AUTO 00000KT 10SM BKN070 OVC085 21/20 A3014 RMK AO2
KPIE 
14nm S 
250953Z AUTO 13005KT 10SM OVC080 22/21 A3013 RMK AO2 SLP203 T02220206 $
KVDF 
15nm SE 
251015Z AUTO 00000KT 10SM SCT090 20/18 A3015 RMK AO2
KTPF 
15nm SE 
251015Z AUTO 13004KT 10SM SCT080 BKN090 OVC120 A3015 RMK AO2
KMCF 
18nm S 
250956Z AUTO 11004KT 5SM BR FEW090 21/19 A3013 RMK AO2 SLP206 T02050193 FZRANO $
KBKV 
21nm N 
250953Z AUTO 11004KT 10SM OVC060 21/19 A3015 RMK AO2 SLP206 T02060189
TAF
KTPA 
11nm S 
250915Z 2509/2612 14004KT P6SM SCT030 BKN060 FM251000 14004KT P6SM SCT060 FM251400 15006KT P6SM SCT020 FM251700 20008KT P6SM SCT040 FM252100 24008KT P6SM SCT050 FM260100 VRB03KT P6SM SCT060
KPIE 
14nm S 
250539Z 2506/2606 VRB03KT P6SM SCT030 BKN050 TEMPO 2506/2508 -RA BKN030 FM250900 VRB03KT P6SM SCT060 FM251400 15007KT P6SM SCT020 FM251700 18010KT P6SM SCT040 FM252100 22009KT P6SM SCT050 FM260100 VRB03KT P6SM SCT060
KMCF 
18nm S 
250900Z 2509/2615 13005KT 9999 BKN020 QNH3013INS BECMG 2511/2512 12006KT 9999 SCT020 QNH3012INS BECMG 2520/2521 21009KT 9999 FEW035 QNH3014INS BECMG 2602/2603 20005KT 9999 SCT015 QNH3015INS TX30/2519Z TN19/2512Z
NOTAMs
Click for the latest NOTAMs
NOTAMs are issued by the DoD/FAA and will open in a separate window not controlled by AirNav.

 

 
 

Would you like to see your business listed on this page?

 If your business provides an interesting product or service to pilots, flight crews, aircraft, or users of the Lake Keystone Seaplane Base, you should consider listing it here.  To start the listing process, click on the button below
 
Add a business
 

Other Pages about Lake Keystone Seaplane Base

Update a link
 
Copyright © AirNav, LLC. All rights reserved. Privacy Policy  Contact